Latest Weather Observations for Jabiru

IDD60801

Issued at 10:05 pm CST Thursday 24 April 2014 (issued every 30 minutes, with the page automatically refreshed every 10 minutes)

About weather observations | Map of weather stations | Latest weather observations for NT | Other Formats
Station Details ID: 014198 Name: JABIRU AIRPORT Lat: -12.66 Lon: 132.89 Height: 26.5 m
Data from the previous 72 hours. | See also: Recent months at Jabiru
Date/Time
CST
Temp
°C
App
Temp
°C
Dew
Point
Rel
Hum
%
Delta-T
°C
Wind Press
QNH
hPa
Press
MSL
hPa
Rain
since 9 am
mm
Dir
 
Spd
km/h
Gust
km/h
Spd
kts
Gust
kts
24/10:00pm 28.6 32.7 23.3 73 3.6 ESE 7 11 4 6 1008.5 - 0.0
24/09:30pm 28.7 32.5 23.4 73 3.6 ESE 9 11 5 6 1008.5 - 0.0
24/09:00pm 29.1 32.8 23.3 71 4.0 ESE 9 13 5 7 1008.2 1008.0 0.0
24/08:30pm 29.1 33.2 23.3 71 4.0 ESE 7 11 4 6 1007.9 - 0.0
24/08:00pm 29.2 33.0 23.4 71 4.0 E 9 11 5 6 1007.5 - 0.0
24/07:30pm 29.2 33.4 23.4 71 4.0 E 7 9 4 5 1006.9 - 0.0
24/07:00pm 29.6 34.0 23.8 71 4.0 E 7 9 4 5 1006.4 - 0.0
24/06:30pm 30.2 35.1 24.4 71 4.0 E 6 9 3 5 1005.9 - 0.0
24/06:00pm 30.9 35.1 23.5 64 5.1 ESE 7 13 4 7 1005.4 1005.2 0.0
24/05:30pm 31.7 35.5 23.5 62 5.7 E 9 13 5 7 1005.0 - 0.0
24/05:00pm 32.4 36.1 23.3 58 6.3 E 9 13 5 7 1004.9 - 0.0
24/04:30pm 32.6 35.8 22.4 55 7.0 SSE 9 19 5 10 1004.8 - 0.0
24/04:00pm 32.7 36.0 23.9 60 6.1 E 13 20 7 11 1005.0 - 0.0
24/03:30pm 32.6 36.2 23.8 59 6.1 E 11 19 6 10 1005.0 - 0.0
24/03:00pm 32.5 36.0 22.9 57 6.6 E 9 13 5 7 1005.4 1005.2 0.0
24/02:30pm 32.5 35.9 23.4 58 6.3 SE 11 19 6 10 1005.8 - 0.0
24/02:00pm 31.8 34.7 22.5 58 6.4 E 11 15 6 8 1006.3 - 0.0
24/01:30pm 31.7 34.6 22.4 58 6.4 ESE 11 17 6 9 1006.8 - 0.0
24/01:00pm 31.8 34.9 23.6 62 5.7 E 13 20 7 11 1006.9 - 0.0
24/12:30pm 30.3 32.4 22.5 63 5.3 ESE 15 24 8 13 1007.6 - 0.0
24/12:00pm 31.0 34.1 23.6 64 5.1 SE 13 20 7 11 1007.9 1007.7 0.0
24/11:30am 30.2 32.7 23.1 65 4.9 ESE 15 22 8 12 1008.3 - 0.0
24/11:00am 30.2 33.1 23.1 65 4.9 ESE 13 19 7 10 1008.9 - 0.0
24/10:30am 29.1 31.8 22.8 69 4.3 SSE 13 24 7 13 1009.3 - 0.0
24/10:00am 28.4 30.9 23.1 73 3.6 ESE 15 20 8 11 1009.4 - 0.0
24/09:30am 28.3 31.2 23.2 74 3.5 E 13 19 7 10 1009.6 - 0.0
24/09:00am 27.5 31.0 23.5 79 2.7 ESE 11 15 6 8 1009.4 1009.2 20.6
24/08:30am 27.0 30.9 23.0 79 2.7 ENE 7 7 4 4 1009.1 - 20.6
24/08:00am 26.1 31.5 23.2 84 2.0 CALM 0 4 0 2 1008.5 - 20.6
24/07:30am 25.5 30.3 22.8 85 1.8 ESE 2 7 1 4 1008.0 - 20.6
24/07:00am 25.0 28.9 22.5 86 1.7 SSE 6 9 3 5 1007.5 - 20.6
24/06:30am 25.0 28.9 22.5 86 1.7 S 6 11 3 6 1006.9 - 20.6
24/06:00am 24.8 28.8 22.7 88 1.4 ESE 6 7 3 4 1006.7 1006.5 20.6
24/05:30am 24.8 28.8 22.7 88 1.4 SSE 6 7 3 4 1006.6 - 20.6
24/05:00am 24.9 29.0 23.0 89 1.3 SE 6 7 3 4 1006.6 - 20.6
24/04:30am 25.0 28.9 22.9 88 1.4 ESE 7 9 4 5 1006.6 - 20.6
24/04:00am 25.0 28.7 22.5 86 1.7 SSE 7 11 4 6 1006.3 - 20.6
24/03:30am 25.0 28.9 22.5 86 1.7 S 6 9 3 5 1006.3 - 20.6
24/03:00am 25.1 28.9 22.4 85 1.8 SSE 6 9 3 5 1006.3 1006.1 20.6
24/02:30am 25.3 29.2 22.6 85 1.8 ESE 6 9 3 5 1006.5 - 20.6
24/02:00am 25.6 29.0 22.7 84 2.0 ESE 9 15 5 8 1006.7 - 20.6
24/01:30am 25.4 28.9 22.9 86 1.7 ESE 9 13 5 7 1007.2 - 20.6
24/01:00am 25.8 28.9 22.9 84 2.0 ESE 11 17 6 9 1007.7 - 20.6
24/12:30am 25.8 30.0 23.5 87 1.6 SE 7 13 4 7 1008.0 - 20.6
24/12:00am 25.7 29.6 23.6 88 1.4 E 9 11 5 6 1008.3 1008.1 20.6
 
Date/Time
CST
Temp
°C
App
Temp
°C
Dew
Point
Rel
Hum
%
Delta-T
°C
Wind Press
QNH
hPa
Press
MSL
hPa
Rain
since 9 am
mm
Dir
 
Spd
km/h
Gust
km/h
Spd
kts
Gust
kts
23/11:30pm 25.9 30.0 23.9 89 1.4 ENE 9 13 5 7 1008.8 - 20.6
23/11:00pm 25.8 29.9 24.0 90 1.2 E 9 17 5 9 1009.0 - 20.6
23/10:30pm 25.5 29.4 24.3 93 0.8 E 11 15 6 8 1009.1 - 20.6
23/10:00pm 25.2 28.7 24.2 94 0.7 E 13 19 7 10 1009.6 - 20.6
23/09:30pm 25.1 27.4 24.1 94 0.7 E 19 30 10 16 1009.7 - 20.0
23/09:00pm 25.2 28.7 24.2 94 0.7 ESE 13 20 7 11 1009.6 1009.4 19.6
23/08:30pm 24.9 28.6 23.9 94 0.7 SE 11 20 6 11 1009.2 - 18.2
23/08:00pm 25.0 28.4 24.1 95 0.6 SSE 13 22 7 12 1009.3 - 13.4
23/07:30pm 24.7 27.7 23.3 92 1.0 S 13 19 7 10 1008.2 - 10.0
23/07:00pm 27.0 32.0 25.4 91 1.1 NE 9 15 5 8 1007.4 - 2.6
23/06:30pm 27.9 31.9 25.1 85 2.0 NNW 13 22 7 12 1006.3 - 2.2
23/06:00pm 28.5 31.3 24.9 81 2.5 ENE 19 26 10 14 1006.3 1006.1 1.0
23/05:30pm 31.0 33.7 24.1 66 4.8 N 17 22 9 12 1005.6 - 0.0
23/05:00pm 32.8 37.6 22.9 56 6.8 E 2 7 1 4 1005.2 - 0.0
23/04:30pm 32.9 37.2 22.7 55 7.0 W 4 9 2 5 1005.2 - 0.0
23/04:00pm 32.8 37.5 22.6 55 7.0 N 2 7 1 4 1005.1 - 0.0
23/03:30pm 33.0 37.3 23.6 57 6.5 NNE 7 9 4 5 1005.1 - 0.0
23/03:00pm 32.0 35.9 23.0 59 6.2 ESE 7 13 4 7 1005.7 1005.5 0.0
23/02:30pm 31.3 35.3 23.7 64 5.3 N 9 15 5 8 1006.2 - 0.0
23/02:00pm 31.4 34.4 24.0 65 5.2 NNE 15 20 8 11 1006.7 - 0.0
23/01:30pm 32.0 35.8 23.5 60 5.9 N 9 20 5 11 1007.0 - 0.0
23/01:00pm 31.7 35.3 23.0 60 6.0 NNE 9 17 5 9 1007.4 - 0.0
23/12:30pm 31.6 35.7 22.3 57 6.3 NE 4 7 2 4 1007.6 - 0.0
23/12:00pm 31.1 34.7 22.4 60 5.9 NNE 7 13 4 7 1008.1 1007.9 0.0
23/11:30am 31.4 34.6 23.0 61 5.8 ENE 11 20 6 11 1008.5 - 0.0
23/11:00am 31.6 35.7 23.2 61 5.8 NE 7 17 4 9 1008.9 - 0.0
23/10:30am 30.7 34.5 22.8 62 5.4 SSE 7 13 4 7 1009.3 - 0.0
23/10:00am 30.0 32.9 23.2 67 4.7 ESE 13 20 7 11 1009.6 - 0.0
23/09:30am 29.0 31.8 23.0 70 4.1 ESE 13 17 7 9 1009.8 - 0.0
23/09:00am 28.1 30.7 22.6 72 3.7 SE 13 17 7 9 1009.9 1009.7 0.0
23/08:30am 27.8 31.1 22.5 73 3.6 ESE 9 15 5 8 1009.8 - 0.0
23/08:00am 26.9 30.1 22.3 76 3.1 ESE 9 13 5 7 1009.6 - 0.0
23/07:30am 26.0 29.6 22.3 80 2.5 ESE 7 11 4 6 1009.5 - 0.0
23/07:00am 25.4 29.0 22.1 82 2.2 ESE 6 9 3 5 1009.1 - 0.0
23/06:30am 25.0 28.9 21.9 83 2.1 SE 4 9 2 5 1008.6 - 0.0
23/06:00am 25.3 30.0 22.0 82 2.2 CALM 0 4 0 2 1008.5 1008.3 0.0
23/05:30am 25.5 28.8 21.8 80 2.5 SE 7 9 4 5 1008.2 - 0.0
23/05:00am 25.4 28.7 21.5 79 2.6 ESE 6 7 3 4 1008.3 - 0.0
23/04:30am 25.5 28.5 21.2 77 2.8 E 7 11 4 6 1008.6 - 0.0
23/04:00am 25.6 28.6 21.3 77 2.8 ESE 7 11 4 6 1008.7 - 0.0
23/03:30am 25.8 28.2 20.8 74 3.3 ENE 9 11 5 6 1008.7 - 0.0
23/03:00am 26.3 28.7 20.8 71 3.6 E 9 13 5 7 1008.2 1008.0 0.0
23/02:30am 27.2 28.7 20.5 67 4.4 E 13 22 7 12 1008.0 - 0.0
23/02:00am 26.7 29.3 20.5 69 4.1 S 7 15 4 8 1007.9 - 0.0
23/01:30am 27.0 30.0 20.8 69 4.1 SE 6 13 3 7 1008.5 - 0.0
23/01:00am 27.0 30.0 20.8 69 4.1 SE 6 7 3 4 1009.0 - 0.0
23/12:30am 27.6 30.3 20.7 66 4.6 E 7 9 4 5 1009.7 - 0.0
23/12:00am 28.3 29.9 20.8 63 5.0 E 13 19 7 10 1010.2 1010.0 0.0
 
Date/Time
CST
Temp
°C
App
Temp
°C
Dew
Point
Rel
Hum
%
Delta-T
°C
Wind Press
QNH
hPa
Press
MSL
hPa
Rain
since 9 am
mm
Dir
 
Spd
km/h
Gust
km/h
Spd
kts
Gust
kts
22/11:30pm 28.4 30.8 20.9 64 5.0 E 9 11 5 6 1010.5 - 0.0
22/11:00pm 28.4 30.5 20.9 64 5.0 E 11 17 6 9 1010.6 - 0.0
22/10:30pm 28.4 31.5 21.4 66 4.7 E 7 11 4 6 1010.7 - 0.0
22/10:00pm 28.8 31.1 21.3 64 5.0 ESE 11 20 6 11 1010.3 - 0.0
22/09:30pm 28.5 31.8 21.8 67 4.5 E 7 11 4 6 1009.9 - 0.0
22/09:00pm 29.0 31.9 21.7 64 4.9 E 9 13 5 7 1009.6 1009.4 0.0
22/08:30pm 29.6 32.4 21.5 61 5.4 E 9 13 5 7 1009.6 - 0.0
22/08:00pm 29.9 31.9 20.7 57 6.1 E 11 15 6 8 1009.4 - 0.0
22/07:30pm 30.3 33.1 20.5 55 6.5 SE 6 7 3 4 1008.7 - 0.0
22/07:00pm 31.2 33.5 19.9 51 7.5 SE 7 15 4 8 1008.2 - 0.0
22/06:30pm 32.0 32.7 18.9 45 8.5 SE 13 19 7 10 1007.9 - 0.0
22/06:00pm 32.4 33.1 18.9 44 8.8 ESE 13 19 7 10 1007.5 1007.3 0.0
22/05:30pm 32.8 33.7 19.3 45 8.9 SE 13 20 7 11 1007.1 - 0.0
22/05:00pm 33.4 33.1 19.1 42 9.4 SE 19 28 10 15 1006.8 - 0.0
22/04:30pm 34.1 33.7 19.0 41 9.9 SE 19 28 10 15 1006.6 - 0.0
22/04:00pm 34.0 34.0 18.9 41 9.9 E 17 28 9 15 1006.6 - 0.0
22/03:30pm 34.0 33.2 18.1 39 10.3 SE 19 32 10 17 1006.5 - 0.0
22/03:00pm 34.3 34.0 18.3 38 10.4 ESE 17 28 9 15 1006.6 1006.4 0.0
22/02:30pm 33.7 33.2 18.6 40 9.9 SSE 19 30 10 16 1006.9 - 0.0
22/02:00pm 33.6 33.4 19.3 43 9.4 ESE 19 30 10 16 1007.5 - 0.0
22/01:30pm 33.6 33.4 18.5 40 9.8 SE 17 35 9 19 1008.2 - 0.0
22/01:00pm 33.9 34.5 20.3 45 9.1 SE 17 32 9 17 1008.6 - 0.0
22/12:30pm 33.0 33.7 20.5 47 8.4 SE 17 26 9 14 1009.1 - 0.0
22/12:00pm 32.8 33.9 21.3 50 7.8 SSE 17 28 9 15 1009.8 1009.6 0.0
22/11:30am 32.1 33.9 21.9 54 6.9 ESE 15 26 8 14 1010.6 - 0.0
22/11:00am 31.1 32.5 21.9 58 6.2 ESE 17 22 9 12 1011.3 - 0.0
22/10:30am 30.5 32.3 21.8 59 5.9 ESE 15 22 8 12 1011.6 - 0.0
22/10:00am 29.5 31.6 21.7 63 5.2 ESE 13 20 7 11 1011.7 - 0.0
22/09:30am 28.7 31.2 21.7 66 4.7 ESE 11 20 6 11 1011.6 - 0.0
22/09:00am 27.9 30.1 21.9 70 4.0 E 13 20 7 11 1011.7 1011.5 0.0
22/08:30am 27.4 29.6 21.9 72 3.7 ESE 13 20 7 11 1011.5 - 0.0
22/08:00am 26.6 29.2 22.0 76 3.1 E 11 19 6 10 1011.1 - 0.0
22/07:30am 25.6 28.4 21.5 78 2.7 E 9 13 5 7 1011.0 - 0.0
22/07:00am 25.2 28.3 21.5 80 2.5 ESE 7 13 4 7 1010.8 - 0.0
22/06:30am 25.3 28.5 21.2 78 2.7 SE 6 9 3 5 1010.5 - 0.0
22/06:00am 25.7 28.8 21.4 77 2.9 ESE 7 13 4 7 1010.2 1010.0 0.0
22/05:30am 25.5 28.5 21.2 77 2.8 ESE 7 13 4 7 1009.8 - 0.0
22/05:00am 25.6 28.6 21.3 77 2.8 ESE 7 11 4 6 1009.9 - 0.0
22/04:30am 25.9 28.9 21.3 76 3.0 ESE 7 11 4 6 1009.6 - 0.0
22/04:00am 26.3 29.0 21.3 74 3.3 SE 9 15 5 8 1009.4 - 0.0
22/03:30am 26.4 29.0 21.2 73 3.4 ESE 9 13 5 7 1009.4 - 0.0
22/03:00am 26.3 29.2 21.1 73 3.4 SE 7 11 4 6 1009.4 1009.2 0.0
22/02:30am 26.2 29.1 21.0 73 3.4 ESE 7 11 4 6 1009.7 - 0.0
22/02:00am 26.8 29.4 20.4 68 4.2 E 7 11 4 6 1009.9 - 0.0
22/01:30am 27.0 29.1 20.1 66 4.5 ESE 9 13 5 7 1010.1 - 0.0
22/01:00am 27.4 29.0 20.0 64 4.8 E 11 17 6 9 1010.4 - 0.0
22/12:30am 27.5 28.8 20.1 64 4.8 E 13 17 7 9 1010.7 - 0.0
22/12:00am 27.6 29.4 20.4 65 4.7 ESE 11 15 6 8 1010.8 1010.6 0.0
 
Date/Time
CST
Temp
°C
App
Temp
°C
Dew
Point
Rel
Hum
%
Delta-T
°C
Wind Press
QNH
hPa
Press
MSL
hPa
Rain
since 9 am
mm
Dir
 
Spd
km/h
Gust
km/h
Spd
kts
Gust
kts
21/11:30pm 27.7 30.6 21.7 70 4.0 ESE 9 13 5 7 1010.9 - 0.0
21/11:00pm 27.0 30.7 22.6 77 3.0 ESE 7 7 4 4 1011.0 - 0.0
21/10:30pm 27.2 30.8 22.4 75 3.2 ESE 7 9 4 5 1010.8 - 0.0

Other Formats:

Comma delimited format used in spreadsheet applications
http://www.bom.gov.au/fwo/IDD60801/IDD60801.94137.axf

JavaScript Object Notation format (JSON) in row-major order
http://www.bom.gov.au/fwo/IDD60801/IDD60801.94137.json